ROMMA est une association bénévole à but non lucratif. Votre soutien est indispensable : ADHERER à ROMMA ou FAIRE un DON

Grimentz - (CH, Suisse)

Alpes Valaisannes (1710 m)   Longitude: 07° 34' E   Latitude: 46° 11' N Station partenaire n°125
 

Détail journalier du     <<     >>

Température Precipitation Humidité Vent Dir Rafale Dir. rafale Ensol.
Heure (°C) (mm) (%) (km/h) (km/h) (min)
01:00 10.20534ONO10O0
02:00 10.00525ONO13NO0
03:00 10.20514ONO10O0
04:00 9.30532NO11NO0
05:00 8.70582ONO6ONO0
06:00 9.10544ONO11O0
07:00 8.50572NO11ONO0
08:00 8.40584ONO6ONO0
09:00 12.30443SSO10S45
10:00 13.70472---8ENE60
11:00 14.20433SE8SSE60
12:00 15.20452E6SSE55
13:00 13.80491---6NE45
14:00 14.30481---6SSE15
15:00 14.70451---6SSE55
16:00 13.305103SSO5
17:00 11.605400---0
18:00 11.30541NO6ONO0
19:00 10.80552NO8NO0
20:00 10.40602ONO6ONO0
21:00 10.60572NO6ONO0
22:00 10.20601---5NO0
23:00 9.906205NO0
minuit 9.50641---5NO0

Graphique du 27-10-2019

 

Serveur OMMA